EDT,Max TemperatureF,Mean TemperatureF,Min TemperatureF,Max Dew PointF,MeanDew PointF,Min DewpointF,Max Humidity, Mean Humidity, Min Humidity, Max Sea Level PressureIn, Mean Sea Level PressureIn, Min Sea Level PressureIn, Max VisibilityMiles, Mean VisibilityMiles, Min VisibilityMiles, Max Wind SpeedMPH, Mean Wind SpeedMPH, Max Gust SpeedMPH,PrecipitationIn, CloudCover, Events, WindDirDegrees
2013-9-1,82,75,67,70,67,66,100,83,65,29.88,29.84,29.81,10,6,0,22,2,43,0.07,7,Fog-Rain-Thunderstorm,92
2013-9-2,81,73,65,70,67,63,97,82,67,29.83,29.79,29.69,10,7,1,16,3,68,0.58,5,Rain-Thunderstorm,139
2013-9-3,73,67,61,63,60,54,100,79,57,29.87,29.79,29.74,10,7,0,13,4,23,0.00,7,Fog,241
2013-9-4,74,65,55,57,55,49,93,70,46,29.96,29.92,29.86,10,10,10,14,4,22,0.00,5,,239
2013-9-5,68,55,42,58,50,37,93,64,34,30.19,30.00,29.89,10,10,9,15,4,22,0.01,4,Rain,293
2013-9-6,65,51,37,47,40,35,93,65,37,30.28,30.21,30.14,10,10,10,8,2,23,0.00,0,,245
2013-9-7,73,58,42,60,49,41,96,69,41,30.13,30.01,29.88,10,10,8,7,1,20,0.04,3,Rain,189
2013-9-8,68,55,41,57,50,40,93,68,42,30.14,29.92,29.81,10,10,2,17,4,25,T,4,,350
2013-9-9,69,53,36,50,42,35,92,66,39,30.25,30.17,30.11,10,9,2,10,2,15,0.00,1,,185
2013-9-10,79,66,53,69,63,50,97,82,67,30.12,30.06,30.01,10,6,1,9,2,25,0.34,4,Rain-Thunderstorm,203
2013-9-11,92,79,66,74,68,64,100,76,52,30.11,30.06,29.95,10,4,0,16,2,25,0.09,1,Fog-Rain-Thunderstorm,208
2013-9-12,82,74,65,72,66,63,93,88,82,29.94,29.79,29.68,10,5,0,32,3,54,1.93,6,Fog-Rain-Thunderstorm,190
2013-9-13,68,60,51,64,58,50,96,85,73,29.86,29.71,29.64,10,9,2,13,6,18,0.19,8,Rain,281
2013-9-14,59,52,44,49,48,43,93,82,71,30.11,29.96,29.87,10,9,4,9,4,15,0.01,8,,284
2013-9-15,67,52,37,54,46,37,100,78,55,30.19,30.13,30.07,10,10,7,7,1,22,0.00,0,,255
2013-9-16,62,49,36,53,48,35,100,81,61,30.31,30.12,30.05,10,10,6,13,3,17,0.08,5,Rain,338
2013-9-17,62,47,32,45,38,30,96,71,46,30.47,30.40,30.34,10,10,10,9,2,16,0.00,0,,261
2013-9-18,69,52,35,50,41,34,93,65,37,30.35,30.28,30.17,10,9,0,7,1,28,0.00,0,Fog,308
2013-9-19,75,57,39,54,45,37,100,71,41,30.19,30.13,30.07,10,7,1,7,1,23,T,0,,248
2013-9-20,80,61,42,61,49,41,100,68,36,30.11,30.05,29.97,10,8,2,9,2,23,0.00,0,,222
2013-9-21,74,63,52,61,55,47,86,66,45,29.98,29.81,29.61,10,10,7,23,10,32,0.39,3,Rain,173
2013-9-22,63,55,46,61,50,40,93,72,51,29.92,29.74,29.63,10,9,1,18,6,26,0.30,8,Rain,259
2013-9-23,58,48,38,40,38,36,92,70,47,30.07,30.00,29.92,10,10,7,14,4,20,0.00,3,,313
2013-9-24,62,48,34,46,39,32,96,74,51,30.06,29.99,29.90,10,10,9,12,2,22,T,2,,286
2013-9-25,68,52,36,50,43,35,92,70,48,29.99,29.95,29.91,10,9,2,9,1,43,0.00,1,,304
2013-9-26,65,52,39,46,43,38,93,73,52,30.16,30.06,30.00,10,7,1,10,2,13,0.00,2,,288
2013-9-27,60,49,38,52,42,37,100,82,64,30.31,30.22,30.16,10,5,0,6,1,16,0.00,4,Fog,350
2013-9-28,71,54,37,54,43,36,100,74,47,30.38,30.32,30.26,10,4,0,7,1,10,0.00,3,Fog,330
2013-9-29,73,57,41,54,45,39,96,70,44,30.25,30.19,30.08,10,5,0,8,1,12,0.00,1,Fog,220
2013-9-30,71,56,41,52,47,40,96,72,47,30.11,30.05,29.99,10,10,9,9,1,13,0.00,0,,140